Time;durP1;ratioP1;P1;durP2;ratioP2;P2;SDS_P1;SDS_P2;PMS_P1;PMS_P2;Temp;Humidity;BMP_temperature;BMP_pressure;BME280_temperature;BME280_humidity;BME280_pressure;Samples;Min_cycle;Max_cycle;Signal;HPM_P1;HPM_P2
2023/03/30 00:04:52;;;;;;;22.60;13.40;;;;;;;1.86;55.41;100555.67;107286;1253;1059171;-71
2023/03/30 00:09:45;;;;;;;23.90;14.40;;;;;;;1.86;55.77;100553.14;107331;1253;1016452;-71
2023/03/30 00:14:41;;;;;;;27.10;14.80;;;;;;;1.88;55.79;100547.57;107321;1253;1016166;-71
2023/03/30 00:19:36;;;;;;;25.90;14.60;;;;;;;1.90;56.30;100542.19;107307;1254;1071110;-71
2023/03/30 00:24:29;;;;;;;22.80;13.20;;;;;;;1.90;56.45;100540.99;107256;1253;1051475;-71
2023/03/30 00:29:22;;;;;;;22.90;13.50;;;;;;;1.90;56.22;100543.24;107260;1253;1016498;-71
2023/03/30 00:34:15;;;;;;;22.90;12.90;;;;;;;1.91;56.81;100537.96;107255;1254;1016165;-70
2023/03/30 00:39:08;;;;;;;26.70;13.80;;;;;;;1.89;56.71;100534.80;107326;1254;1016147;-71
2023/03/30 00:44:02;;;;;;;21.20;12.70;;;;;;;1.86;56.70;100529.16;107162;1253;1016189;-71
2023/03/30 00:48:58;;;;;;;22.00;13.10;;;;;;;1.84;56.66;100523.77;107323;1257;1050844;-71
2023/03/30 00:53:55;;;;;;;23.50;12.80;;;;;;;1.83;56.50;100511.07;107341;1255;1058277;-71
2023/03/30 00:58:49;;;;;;;26.40;14.10;;;;;;;1.83;56.96;100511.25;107307;1253;1071525;-71
2023/03/30 01:03:47;;;;;;;22.80;13.00;;;;;;;1.82;57.15;100507.80;107358;1254;1016163;-70
2023/03/30 01:08:41;;;;;;;22.70;12.60;;;;;;;1.83;57.22;100499.13;107317;1259;1071722;-71
2023/03/30 01:13:37;;;;;;;22.40;12.70;;;;;;;1.84;57.72;100489.62;107271;1253;1016540;-71
2023/03/30 01:18:53;;;;;;;19.30;12.40;;;;;;;1.83;57.94;100486.67;107280;1253;1058427;-70
2023/03/30 01:24:08;;;;;;;24.90;14.50;;;;;;;1.82;57.91;100477.89;107330;1254;1073054;-71
2023/03/30 01:29:26;;;;;;;18.60;11.50;;;;;;;1.83;58.04;100474.14;107353;1253;1065461;-71
2023/03/30 01:34:59;;;;;;;18.70;11.80;;;;;;;1.85;58.33;100471.84;107251;1254;1070116;-71
2023/03/30 01:39:56;;;;;;;21.40;11.40;;;;;;;1.89;58.25;100481.98;107214;1256;1050428;-71
2023/03/30 01:44:55;;;;;;;;;;;;;;;1.93;58.51;100481.96;107247;1257;1059305;-71
2023/03/30 01:49:57;;;;;;;20.70;12.30;;;;;;;1.95;58.82;100485.64;107273;1254;1072332;-71
2023/03/30 01:54:59;;;;;;;21.10;12.40;;;;;;;1.97;58.65;100485.77;107282;1253;1066264;-71
2023/03/30 02:00:00;;;;;;;20.50;12.20;;;;;;;2.00;58.90;100478.23;107293;1253;1070532;-71
2023/03/30 02:05:06;;;;;;;22.60;12.40;;;;;;;2.03;58.81;100469.64;107311;1253;1051194;-71
2023/03/30 02:10:04;;;;;;;20.80;11.70;;;;;;;2.08;58.60;100463.02;107341;1253;1058885;-71
2023/03/30 02:15:02;;;;;;;21.50;12.50;;;;;;;2.10;58.89;100462.10;107307;1254;1072688;-71
2023/03/30 02:19:57;;;;;;;23.00;13.30;;;;;;;2.10;59.07;100456.64;107251;1255;1065014;-71
2023/03/30 02:24:54;;;;;;;21.40;11.40;;;;;;;2.09;59.39;100453.19;107272;1253;1070824;-71
2023/03/30 02:29:48;;;;;;;21.10;12.30;;;;;;;2.09;59.41;100448.05;107308;1255;1051270;-71
2023/03/30 02:34:57;;;;;;;20.10;12.30;;;;;;;2.08;59.90;100443.38;107168;1253;1016516;-71
2023/03/30 02:39:55;;;;;;;18.70;11.10;;;;;;;2.06;59.83;100442.75;107294;1257;1073140;-71
2023/03/30 02:45:19;;;;;;;22.20;11.90;;;;;;;2.06;59.84;100442.23;107346;1256;1065582;-71
2023/03/30 02:50:39;;;;;;;15.30;11.00;;;;;;;2.06;59.85;100440.38;107292;1255;1070675;-71
2023/03/30 02:56:02;;;;;;;18.80;10.60;;;;;;;2.07;60.14;100438.89;107278;1256;1051060;-70
2023/03/30 03:01:24;;;;;;;20.80;11.40;;;;;;;2.09;59.86;100428.86;107249;1257;1058154;-70
2023/03/30 03:06:25;;;;;;;;;;;;;;;2.10;60.65;100430.45;107328;1255;1072513;-71
2023/03/30 03:11:19;;;;;;;17.60;10.80;;;;;;;2.12;60.61;100423.88;107312;1255;1065593;-71
2023/03/30 03:16:15;;;;;;;20.90;11.20;;;;;;;2.14;60.46;100420.93;107208;1257;1016114;-71
2023/03/30 03:21:30;;;;;;;;;;;;;;;2.16;61.01;100413.48;107307;1254;1051409;-70
2023/03/30 03:26:23;;;;;;;26.60;11.00;;;;;;;2.17;60.97;100409.77;107357;1254;1018301;-71
2023/03/30 03:31:17;;;;;;;18.20;10.80;;;;;;;2.18;60.86;100405.20;107283;1254;1015999;-71
2023/03/30 03:36:10;;;;;;;19.30;11.90;;;;;;;2.21;60.90;100402.24;107264;1257;1016507;-71
2023/03/30 03:41:09;;;;;;;15.70;9.30;;;;;;;2.22;61.12;100398.39;107315;1256;1071243;-71
2023/03/30 03:46:02;;;;;;;19.40;9.90;;;;;;;2.21;60.79;100395.94;107271;1254;1016498;-71
2023/03/30 03:50:58;;;;;;;19.20;11.00;;;;;;;2.22;60.97;100390.82;107289;1254;1016389;-71
2023/03/30 03:55:53;;;;;;;24.20;12.40;;;;;;;2.24;61.12;100386.70;107333;1254;1072731;-71
2023/03/30 04:00:46;;;;;;;18.10;11.40;;;;;;;2.28;61.20;100383.25;107242;1254;1016009;-71
2023/03/30 04:05:40;;;;;;;18.70;10.90;;;;;;;2.32;61.31;100375.86;107292;1254;1016529;-71
2023/03/30 04:10:34;;;;;;;21.20;11.50;;;;;;;2.37;61.37;100376.26;107250;1255;1016103;-71
2023/03/30 04:15:45;;;;;;;19.80;10.80;;;;;;;2.41;61.04;100374.41;107230;1257;1060684;-71
2023/03/30 04:20:58;;;;;;;19.30;11.70;;;;;;;2.48;61.32;100368.54;107288;1254;1072814;-71
2023/03/30 04:26:14;;;;;;;21.00;12.30;;;;;;;2.51;61.27;100355.33;107255;1254;1065419;-71
2023/03/30 04:31:13;;;;;;;18.30;11.70;;;;;;;2.55;60.97;100349.90;107257;1253;1071038;-71
2023/03/30 04:36:26;;;;;;;20.10;12.20;;;;;;;2.64;60.94;100348.40;107297;1254;1051043;-71
2023/03/30 04:41:40;;;;;;;19.30;10.70;;;;;;;2.76;61.06;100354.17;107271;1257;1059269;-71
2023/03/30 04:46:49;;;;;;;21.40;11.90;;;;;;;2.85;60.96;100350.79;107180;1254;1075552;-71
2023/03/30 04:52:05;;;;;;;20.40;11.90;;;;;;;2.94;61.18;100345.03;107217;1253;1065200;-71
2023/03/30 04:57:19;;;;;;;18.40;11.60;;;;;;;3.04;61.26;100341.85;107169;1253;1072426;-71
2023/03/30 05:02:30;;;;;;;18.70;10.70;;;;;;;3.15;60.79;100341.09;107240;1255;1053676;-70
2023/03/30 05:07:46;;;;;;;17.70;11.20;;;;;;;3.26;60.73;100334.87;107282;1255;1058231;-70
2023/03/30 05:12:55;;;;;;;23.20;12.50;;;;;;;3.40;60.85;100330.11;107304;1254;1073766;-71
2023/03/30 05:18:01;;;;;;;25.70;13.00;;;;;;;3.55;60.60;100334.46;107608;1253;1064987;-71
2023/03/30 05:23:10;;;;;;;19.60;12.40;;;;;;;3.71;60.03;100330.79;107286;1254;1070725;-71
2023/03/30 05:28:23;;;;;;;21.30;13.10;;;;;;;3.89;59.88;100328.55;107222;1254;1050392;-71
2023/03/30 05:33:33;;;;;;;22.20;13.20;;;;;;;4.05;59.35;100324.33;107308;1257;1058843;-71
2023/03/30 05:38:44;;;;;;;20.10;12.70;;;;;;;4.20;59.66;100323.52;107257;1254;1074966;-71
2023/03/30 05:43:56;;;;;;;29.50;13.70;;;;;;;4.32;59.35;100322.40;107256;1257;1065624;-71
2023/03/30 05:49:08;;;;;;;21.80;12.20;;;;;;;4.41;58.96;100325.64;107200;1254;1071218;-71
2023/03/30 05:54:29;;;;;;;21.80;12.80;;;;;;;4.50;58.88;100323.56;107261;1254;1051600;-71
2023/03/30 05:59:34;;;;;;;26.00;14.30;;;;;;;4.59;58.83;100313.21;107178;1254;1059191;-71
2023/03/30 06:04:40;;;;;;;21.60;12.80;;;;;;;4.71;58.58;100307.27;107255;1254;1072163;-71
2023/03/30 06:09:34;;;;;;;21.40;13.10;;;;;;;4.84;58.42;100303.08;107308;1254;1016434;-71
2023/03/30 06:14:32;;;;;;;20.50;12.10;;;;;;;4.98;58.34;100295.13;107224;1254;1069654;-71
2023/03/30 06:19:43;;;;;;;20.90;10.80;;;;;;;5.15;58.23;100298.59;107225;1254;1050952;-71
2023/03/30 06:24:37;;;;;;;19.30;11.50;;;;;;;5.28;58.02;100299.69;107230;1254;1015981;-71
2023/03/30 06:29:30;;;;;;;20.30;11.60;;;;;;;5.37;58.00;100302.56;107162;1254;1016425;-71
2023/03/30 06:34:23;;;;;;;16.40;11.20;;;;;;;5.44;57.75;100298.81;107754;1254;1016203;-71
2023/03/30 06:39:17;;;;;;;14.80;9.30;;;;;;;5.54;57.81;100294.13;107294;1254;1017850;-72
2023/03/30 06:44:13;;;;;;;20.10;11.00;;;;;;;5.67;57.49;100290.75;107233;1254;1016435;-70
2023/03/30 06:49:07;;;;;;;20.90;10.60;;;;;;;5.89;57.35;100289.50;107309;1254;1058602;-71
2023/03/30 06:54:06;;;;;;;17.20;10.90;;;;;;;6.17;57.11;100289.80;107301;1254;1075018;-71
2023/03/30 06:58:59;;;;;;;17.20;9.90;;;;;;;6.45;56.65;100285.73;107298;1254;1016449;-71
2023/03/30 07:03:53;;;;;;;16.20;12.10;;;;;;;6.66;56.25;100285.77;107251;1254;1016385;-71
2023/03/30 07:08:52;;;;;;;19.50;12.00;;;;;;;6.80;56.12;100282.36;107299;1253;1050964;-71
2023/03/30 07:13:49;;;;;;;20.00;11.30;;;;;;;6.84;55.96;100278.50;107261;1254;1058437;-71
2023/03/30 07:18:43;;;;;;;20.40;11.50;;;;;;;6.86;55.81;100278.54;107289;1255;1016446;-71
2023/03/30 07:23:35;;;;;;;15.70;11.60;;;;;;;6.94;55.93;100276.49;107273;1253;1017240;-71
2023/03/30 07:28:29;;;;;;;18.00;11.60;;;;;;;7.00;55.80;100273.20;107259;1254;1016289;-71
2023/03/30 07:33:23;;;;;;;20.50;12.90;;;;;;;6.98;55.67;100272.09;107288;1252;1016406;-71
2023/03/30 07:38:17;;;;;;;17.30;11.00;;;;;;;6.94;55.88;100267.70;107294;1256;1018457;-71
2023/03/30 07:43:15;;;;;;;18.30;10.60;;;;;;;6.83;56.12;100267.80;107280;1253;1073488;-71
2023/03/30 07:48:09;;;;;;;18.20;10.70;;;;;;;6.77;56.09;100271.42;107303;1254;1016394;-71
2023/03/30 07:53:02;;;;;;;20.80;12.30;;;;;;;6.84;56.08;100267.83;107296;1254;1016088;-71
2023/03/30 07:57:56;;;;;;;15.90;11.10;;;;;;;7.03;55.96;100268.09;107331;1254;1016575;-71
2023/03/30 08:02:49;;;;;;;21.60;12.90;;;;;;;7.30;55.94;100258.21;107266;1253;1016294;-71
2023/03/30 08:07:44;;;;;;;19.20;12.90;;;;;;;7.63;55.60;100259.11;107203;1254;1016968;-71
2023/03/30 08:12:42;;;;;;;20.70;12.80;;;;;;;7.94;55.26;100258.20;107397;1253;1065876;-71
2023/03/30 08:17:36;;;;;;;18.30;11.20;;;;;;;8.27;55.14;100252.48;107217;1253;1016443;-71
2023/03/30 08:22:29;;;;;;;20.40;13.20;;;;;;;8.74;54.55;100242.97;107275;1253;1016438;-71
2023/03/30 08:27:22;;;;;;;16.80;12.10;;;;;;;8.99;54.26;100243.38;107334;1254;1016804;-72
2023/03/30 08:32:15;;;;;;;17.90;10.90;;;;;;;9.38;53.99;100238.27;107235;1253;1017262;-71
2023/03/30 08:37:07;;;;;;;15.50;11.00;;;;;;;9.61;53.57;100234.41;107298;1254;1016509;-71
2023/03/30 08:42:16;;;;;;;13.70;10.90;;;;;;;9.77;53.49;100229.42;107201;1254;1016425;-71
2023/03/30 08:47:19;;;;;;;12.90;10.80;;;;;;;9.78;53.02;100229.96;107288;1257;1051615;-72
2023/03/30 08:52:22;;;;;;;14.20;10.10;;;;;;;9.51;53.06;100227.18;107255;1256;1060699;-71
2023/03/30 08:57:29;;;;;;;14.70;10.50;;;;;;;9.29;53.33;100222.55;107362;1253;1074302;-71
2023/03/30 09:02:32;;;;;;;19.30;10.80;;;;;;;9.25;53.41;100214.70;107250;1253;1064899;-72
2023/03/30 09:07:40;;;;;;;15.20;10.80;;;;;;;9.34;53.49;100205.32;107204;1253;1071230;-71
2023/03/30 09:12:39;;;;;;;17.50;10.50;;;;;;;9.29;53.50;100195.75;107457;1253;1050900;-72
2023/03/30 09:17:41;;;;;;;16.40;10.40;;;;;;;9.15;53.62;100192.27;108186;1253;1058576;-71
2023/03/30 09:22:39;;;;;;;13.30;9.30;;;;;;;9.03;54.01;100189.52;107631;1253;1073081;-71
2023/03/30 09:27:45;;;;;;;17.30;12.30;;;;;;;8.89;54.26;100177.54;107457;1253;1064488;-71
2023/03/30 09:32:49;;;;;;;17.10;10.30;;;;;;;8.80;54.45;100175.31;107249;1253;1072704;-71
2023/03/30 09:37:42;;;;;;;15.20;10.40;;;;;;;8.80;54.48;100169.09;107325;1253;1051294;-71
2023/03/30 09:42:51;;;;;;;18.40;10.40;;;;;;;8.77;54.73;100161.80;107355;1253;1015954;-72
2023/03/30 09:47:43;;;;;;;14.10;11.40;;;;;;;8.80;54.94;100149.05;107361;1253;1071917;-71
2023/03/30 09:52:40;;;;;;;17.10;10.70;;;;;;;9.02;54.79;100143.67;107236;1253;1016533;-71
2023/03/30 09:57:33;;;;;;;13.50;10.20;;;;;;;9.38;54.47;100135.67;107462;1253;1071424;-71
2023/03/30 10:02:30;;;;;;;18.10;12.50;;;;;;;9.70;53.97;100135.70;107149;1254;1015920;-71
2023/03/30 10:07:28;;;;;;;19.00;11.70;;;;;;;9.93;53.70;100128.86;107186;1254;1057724;-71
2023/03/30 10:12:25;;;;;;;15.80;11.60;;;;;;;10.45;53.32;100122.60;107258;1254;1075462;-71
2023/03/30 10:17:20;;;;;;;18.10;12.60;;;;;;;11.15;52.30;100114.38;107225;1254;1065405;-71
2023/03/30 10:22:17;;;;;;;16.40;12.30;;;;;;;11.92;51.43;100109.98;107203;1254;1070621;-71
2023/03/30 10:27:13;;;;;;;15.90;12.00;;;;;;;12.64;50.63;100103.05;107149;1254;1051478;-71
2023/03/30 10:32:19;;;;;;;15.90;11.70;;;;;;;13.16;49.64;100097.02;107286;1254;1058029;-72
2023/03/30 10:37:35;;;;;;;15.50;11.30;;;;;;;13.65;48.63;100085.69;107180;1254;1072854;-72
2023/03/30 10:42:31;;;;;;;14.70;11.40;;;;;;;13.89;48.00;100074.39;107257;1258;1065773;-72
2023/03/30 10:47:52;;;;;;;15.30;11.70;;;;;;;14.32;47.27;100069.36;107164;1254;1070916;-71
2023/03/30 10:53:14;;;;;;;12.90;10.80;;;;;;;16.10;45.82;100050.52;107307;1256;1051578;-71
2023/03/30 10:58:10;;;;;;;16.70;10.20;;;;;;;18.68;43.80;100039.33;107272;1254;1059432;-72
2023/03/30 11:03:18;;;;;;;11.20;8.90;;;;;;;18.18;43.34;100042.16;107179;1254;1074859;-72
2023/03/30 11:08:15;;;;;;;9.80;8.70;;;;;;;17.41;44.06;100031.68;107264;1253;1065426;-71
2023/03/30 11:13:15;;;;;;;10.60;8.70;;;;;;;17.24;43.20;100023.83;107347;1254;1071802;-71
2023/03/30 11:18:28;;;;;;;10.90;9.10;;;;;;;16.79;43.33;100031.21;107362;1254;1050821;-72
2023/03/30 11:23:30;;;;;;;11.80;8.70;;;;;;;16.31;43.82;100023.15;107200;1254;1057630;-72
2023/03/30 11:29:02;;;;;;;12.70;9.50;;;;;;;15.55;44.39;100025.23;107181;1258;1072893;-71
2023/03/30 11:34:09;;;;;;;11.50;8.70;;;;;;;15.23;45.13;100009.42;107280;1254;1065129;-72
2023/03/30 11:39:06;;;;;;;13.00;8.60;;;;;;;15.01;45.24;100006.03;107221;1253;1070825;-72
2023/03/30 11:43:59;;;;;;;13.40;9.10;;;;;;;14.60;45.33;100001.45;107227;1256;1050749;-71
2023/03/30 11:49:07;;;;;;;12.00;9.30;;;;;;;14.29;46.09;99989.89;107295;1254;1018805;-72
2023/03/30 11:54:17;;;;;;;12.10;9.40;;;;;;;14.33;46.73;99975.91;107229;1254;1072726;-71
2023/03/30 11:59:21;;;;;;;10.90;8.10;;;;;;;14.67;46.83;99963.36;107225;1254;1066136;-72
2023/03/30 12:04:26;;;;;;;10.20;8.40;;;;;;;14.74;46.40;99951.05;107146;1254;1070141;-71
2023/03/30 12:09:38;;;;;;;12.30;8.40;;;;;;;14.69;46.55;99947.63;107219;1254;1051205;-72
2023/03/30 12:14:49;;;;;;;9.50;7.90;;;;;;;15.25;46.47;99938.67;107315;1254;1058747;-71
2023/03/30 12:19:51;;;;;;;11.10;8.10;;;;;;;15.95;46.10;99919.25;107309;1256;1072432;-72
2023/03/30 12:25:03;;;;;;;11.70;8.30;;;;;;;16.26;44.94;99916.06;107317;1254;1065605;-71
2023/03/30 12:30:11;;;;;;;;;;;;;;;16.95;44.59;99907.84;107197;1254;1070689;-72
2023/03/30 12:35:23;;;;;;;;;;;;;;;17.38;44.32;99908.29;107205;1255;1050884;-72
2023/03/30 12:40:24;;;;;;;11.50;7.80;;;;;;;17.50;43.48;99897.64;107290;1254;1057997;-72
2023/03/30 12:45:33;;;;;;;10.20;7.00;;;;;;;17.54;43.56;99900.73;107291;1254;1073034;-72
2023/03/30 12:50:43;;;;;;;7.30;6.50;;;;;;;17.26;43.47;99894.72;107228;1256;1064743;-71
2023/03/30 12:55:43;;;;;;;10.40;7.20;;;;;;;16.84;43.11;99881.48;107218;1254;1071005;-72
2023/03/30 13:01:06;;;;;;;12.30;8.20;;;;;;;16.22;43.41;99880.30;107191;1254;1051592;-72
2023/03/30 13:06:02;;;;;;;8.30;6.80;;;;;;;15.62;44.17;99882.25;107245;1254;1058208;-71
2023/03/30 13:11:16;;;;;;;15.20;7.50;;;;;;;15.02;44.75;99884.05;107178;1253;1073880;-72
2023/03/30 13:16:09;;;;;;;10.00;6.90;;;;;;;14.48;45.26;99883.52;107177;1254;1064632;-72
2023/03/30 13:21:18;;;;;;;9.80;7.20;;;;;;;14.06;45.95;99881.73;107236;1254;1073169;-71
2023/03/30 13:26:24;;;;;;;9.30;6.70;;;;;;;13.63;46.81;99876.56;107313;1253;1051292;-71
2023/03/30 13:31:42;;;;;;;8.90;6.20;;;;;;;13.32;47.47;99873.68;107265;1254;1059000;-71
2023/03/30 13:36:52;;;;;;;10.60;6.20;;;;;;;13.11;48.19;99870.33;107189;1257;1073179;-72
2023/03/30 13:41:57;;;;;;;8.60;6.10;;;;;;;12.92;48.60;99857.76;107233;1254;1064920;-71
2023/03/30 13:47:31;;;;;;;8.80;6.20;;;;;;;12.84;49.02;99852.76;107208;1253;1071964;-72
2023/03/30 13:52:36;;;;;;;8.80;6.00;;;;;;;12.82;49.14;99842.52;107210;1254;1053517;-71
2023/03/30 13:57:35;;;;;;;9.00;6.00;;;;;;;12.79;49.53;99839.73;107257;1254;1058476;-71
2023/03/30 14:02:30;;;;;;;9.10;6.30;;;;;;;12.73;49.96;99831.79;107293;1253;1073482;-71
2023/03/30 14:07:24;;;;;;;8.60;5.80;;;;;;;12.71;49.98;99821.54;107344;1253;1064374;-71
2023/03/30 14:12:17;;;;;;;10.70;5.80;;;;;;;12.81;50.27;99814.18;107305;1253;1016157;-71
2023/03/30 14:17:19;;;;;;;11.70;6.00;;;;;;;12.99;50.54;99812.66;107238;1254;1016278;-71
2023/03/30 14:22:17;;;;;;;9.50;7.00;;;;;;;13.10;50.55;99815.35;107303;1253;1057839;-71
2023/03/30 14:27:15;;;;;;;10.30;6.90;;;;;;;13.11;50.44;99809.61;107279;1254;1075066;-72
2023/03/30 14:32:13;;;;;;;8.00;5.70;;;;;;;13.05;50.74;99795.91;107058;1253;1064761;-71
2023/03/30 14:37:10;;;;;;;8.80;5.90;;;;;;;13.03;51.08;99790.70;107161;1253;1071215;-71
2023/03/30 14:42:17;;;;;;;7.00;4.10;;;;;;;13.02;51.36;99785.16;107297;1253;1050815;-71
2023/03/30 14:47:11;;;;;;;6.10;4.20;;;;;;;12.95;51.60;99784.69;107234;1253;1058434;-71
2023/03/30 14:52:37;;;;;;;5.80;3.70;;;;;;;12.91;51.90;99781.59;107320;1253;1016330;-71
2023/03/30 14:57:36;;;;;;;5.40;4.30;;;;;;;12.75;52.12;99771.79;107458;1253;1064327;-71
2023/03/30 15:02:33;;;;;;;6.20;4.30;;;;;;;12.56;52.34;99766.70;107364;1252;1071181;-71
2023/03/30 15:07:32;;;;;;;7.20;4.10;;;;;;;12.42;52.67;99763.31;107577;1253;1052023;-71
2023/03/30 15:12:56;;;;;;;8.30;4.90;;;;;;;12.32;53.02;99765.27;107725;1253;1058158;-71
2023/03/30 15:17:50;;;;;;;10.60;5.50;;;;;;;12.20;53.22;99761.33;107444;1253;1073644;-71
2023/03/30 15:22:47;;;;;;;9.40;6.40;;;;;;;12.09;53.54;99757.91;107255;1253;1066891;-71
2023/03/30 15:27:44;;;;;;;9.50;6.30;;;;;;;11.97;54.26;99756.76;107226;1253;1070965;-71
2023/03/30 15:32:42;;;;;;;9.10;6.60;;;;;;;11.85;55.43;99754.33;107484;1254;1050761;-71
2023/03/30 15:37:36;;;;;;;12.50;7.30;;;;;;;11.69;57.08;99748.48;107330;1253;1058423;-71
2023/03/30 15:42:33;;;;;;;11.40;7.70;;;;;;;11.50;58.58;99739.51;107190;1257;1016727;-72
2023/03/30 15:47:25;;;;;;;10.40;8.30;;;;;;;11.31;59.54;99729.14;107220;1253;1065556;-71
2023/03/30 15:52:24;;;;;;;12.10;7.60;;;;;;;11.11;60.66;99722.58;107397;1253;1018828;-71
2023/03/30 15:57:23;;;;;;;10.70;7.70;;;;;;;10.96;61.72;99721.55;107282;1254;1050773;-72
2023/03/30 16:02:32;;;;;;;12.10;7.30;;;;;;;10.84;62.54;99708.55;107379;1256;1058553;-72
2023/03/30 16:07:25;;;;;;;12.20;8.20;;;;;;;10.79;63.05;99699.02;107175;1254;1072765;-72
2023/03/30 16:12:24;;;;;;;28.90;12.30;;;;;;;10.75;63.41;99685.84;107195;1256;1016360;-72
2023/03/30 16:17:17;;;;;;;13.20;9.50;;;;;;;10.65;63.79;99691.91;107381;1256;1070175;-71
2023/03/30 16:22:12;;;;;;;13.30;8.60;;;;;;;10.52;64.22;99690.34;107128;1253;1016393;-71
2023/03/30 16:27:06;;;;;;;12.00;8.60;;;;;;;10.43;64.45;99692.77;107135;1257;1016002;-72
2023/03/30 16:32:00;;;;;;;13.10;9.00;;;;;;;10.35;64.78;99676.98;107585;1256;1016760;-71
2023/03/30 16:36:53;;;;;;;11.20;8.80;;;;;;;10.27;65.00;99665.86;107147;1256;1016296;-70
2023/03/30 16:41:51;;;;;;;9.50;7.70;;;;;;;10.20;64.93;99654.42;107145;1256;1016758;-70
2023/03/30 16:46:45;;;;;;;;;;;;;;;10.14;65.05;99658.21;107149;1254;1050821;-71
2023/03/30 16:51:38;;;;;;;13.20;9.20;;;;;;;10.08;65.08;99660.28;107189;1255;1016469;-70
2023/03/30 16:56:31;;;;;;;13.40;9.00;;;;;;;10.04;64.89;99653.86;106945;1255;1016283;-71
2023/03/30 17:01:24;;;;;;;12.60;7.80;;;;;;;9.99;64.82;99640.70;107100;1253;1015795;-70
2023/03/30 17:06:17;;;;;;;11.20;7.40;;;;;;;9.93;64.47;99637.74;107210;1253;1017635;-71
2023/03/30 17:11:12;;;;;;;10.10;7.90;;;;;;;9.87;64.50;99638.06;107142;1253;1019453;-71
2023/03/30 17:16:05;;;;;;;10.70;9.00;;;;;;;9.83;64.11;99632.70;107143;1253;1058708;-71
2023/03/30 17:21:00;;;;;;;10.40;7.90;;;;;;;9.79;64.20;99632.69;107373;1253;1016679;-71
2023/03/30 17:25:54;;;;;;;11.30;7.30;;;;;;;9.75;63.74;99622.64;107110;1254;1065781;-71
2023/03/30 17:30:49;;;;;;;11.00;7.50;;;;;;;9.71;63.75;99615.70;107181;1253;1071120;-71
2023/03/30 17:35:46;;;;;;;12.40;8.20;;;;;;;9.74;63.14;99619.17;107129;1253;1016275;-71
2023/03/30 17:40:38;;;;;;;11.80;8.40;;;;;;;9.77;62.99;99605.51;107193;1253;1058427;-71
2023/03/30 17:45:33;;;;;;;12.10;7.90;;;;;;;9.77;62.91;99592.71;107201;1256;1015910;-71
2023/03/30 17:50:30;;;;;;;13.40;7.90;;;;;;;9.70;62.84;99598.40;107260;1253;1065593;-71
2023/03/30 17:55:28;;;;;;;10.70;7.30;;;;;;;9.61;62.83;99604.95;107269;1256;1072004;-71
2023/03/30 18:00:23;;;;;;;10.70;8.10;;;;;;;9.58;62.78;99611.52;107237;1254;1051735;-71
2023/03/30 18:05:17;;;;;;;10.40;7.70;;;;;;;9.58;62.56;99611.68;107236;1253;1058661;-71
2023/03/30 18:10:34;;;;;;;16.20;10.60;;;;;;;9.61;62.57;99612.05;107240;1253;1016997;-70
2023/03/30 18:15:28;;;;;;;13.80;8.60;;;;;;;9.63;62.71;99609.98;107264;1254;1065579;-71
2023/03/30 18:20:24;;;;;;;15.80;10.50;;;;;;;9.64;62.73;99610.83;107270;1253;1016432;-71
2023/03/30 18:25:17;;;;;;;13.20;8.80;;;;;;;9.67;62.73;99609.30;107291;1253;1050768;-71
2023/03/30 18:30:31;;;;;;;14.10;9.60;;;;;;;9.71;62.50;99602.04;107292;1254;1059767;-71
2023/03/30 18:35:26;;;;;;;16.30;10.30;;;;;;;9.74;62.38;99580.07;107233;1257;1072929;-71
2023/03/30 18:40:24;;;;;;;14.70;10.10;;;;;;;9.74;63.18;99579.20;107252;1253;1065395;-71
2023/03/30 18:45:30;;;;;;;14.50;10.20;;;;;;;9.67;64.06;99572.09;107121;1254;1070425;-71
2023/03/30 18:50:38;;;;;;;14.70;10.90;;;;;;;9.54;64.75;99563.40;107226;1254;1050131;-71
2023/03/30 18:55:34;;;;;;;16.30;10.50;;;;;;;9.41;65.35;99553.16;107222;1253;1058379;-71
2023/03/30 19:00:30;;;;;;;15.70;11.10;;;;;;;9.34;65.62;99553.13;107059;1253;1073328;-71
2023/03/30 19:05:26;;;;;;;16.10;11.10;;;;;;;9.29;65.30;99555.37;107225;1253;1065930;-71
2023/03/30 19:10:22;;;;;;;14.50;11.00;;;;;;;9.28;65.38;99549.66;107224;1254;1071007;-70
2023/03/30 19:15:41;;;;;;;14.00;10.20;;;;;;;9.27;65.82;99551.91;107207;1254;1051230;-71
2023/03/30 19:20:38;;;;;;;15.60;10.80;;;;;;;9.26;66.17;99561.08;107347;1254;1061445;-71
2023/03/30 19:25:32;;;;;;;13.70;10.60;;;;;;;9.22;66.73;99558.12;107378;1253;1074286;-71
2023/03/30 19:30:25;;;;;;;20.50;11.60;;;;;;;9.15;67.69;99556.52;107213;1259;1016171;-71
2023/03/30 19:35:18;;;;;;;14.60;11.80;;;;;;;9.06;68.29;99559.08;107263;1254;1016563;-70
2023/03/30 19:40:15;;;;;;;15.10;10.60;;;;;;;8.96;68.68;99550.58;107314;1253;1016326;-70
2023/03/30 19:45:08;;;;;;;15.80;11.30;;;;;;;8.89;69.22;99537.92;107217;1256;1058041;-71
2023/03/30 19:50:03;;;;;;;15.50;12.20;;;;;;;8.83;69.61;99537.02;107079;1253;1016115;-70
2023/03/30 19:54:56;;;;;;;15.60;11.30;;;;;;;8.76;69.89;99532.84;107078;1254;1065764;-71
2023/03/30 19:59:50;;;;;;;15.30;13.00;;;;;;;8.73;70.23;99531.10;107117;1258;1016166;-70
2023/03/30 20:04:44;;;;;;;17.40;13.00;;;;;;;8.67;70.40;99534.86;107249;1258;1016544;-71
2023/03/30 20:09:39;;;;;;;21.20;13.80;;;;;;;8.65;70.64;99527.08;107504;1254;1016269;-71
2023/03/30 20:14:32;;;;;;;17.90;12.40;;;;;;;8.62;70.84;99515.67;107097;1254;1075558;-71
2023/03/30 20:19:29;;;;;;;16.90;12.60;;;;;;;8.61;71.17;99510.64;107183;1254;1016204;-71
2023/03/30 20:24:23;;;;;;;16.10;12.20;;;;;;;8.58;71.44;99504.76;107177;1254;1070936;-71
2023/03/30 20:29:16;;;;;;;20.00;16.10;;;;;;;8.56;71.67;99501.11;107115;1253;1016229;-71
2023/03/30 20:34:11;;;;;;;22.10;15.90;;;;;;;8.52;71.86;99498.16;107150;1253;1016493;-71
2023/03/30 20:39:06;;;;;;;23.40;16.00;;;;;;;8.50;71.97;99491.40;107161;1254;1073056;-71
2023/03/30 20:44:02;;;;;;;20.30;15.10;;;;;;;8.50;72.19;99488.65;107225;1254;1066262;-72
2023/03/30 20:49:00;;;;;;;20.90;15.10;;;;;;;8.49;72.43;99484.16;107208;1253;1073387;-72
2023/03/30 20:53:53;;;;;;;21.20;16.30;;;;;;;8.48;72.69;99482.09;107244;1257;1053754;-71
2023/03/30 20:58:46;;;;;;;22.50;16.50;;;;;;;8.47;72.68;99477.92;107255;1254;1016639;-71
2023/03/30 21:03:40;;;;;;;22.40;16.40;;;;;;;8.44;72.94;99478.75;107262;1254;1016891;-72
2023/03/30 21:08:34;;;;;;;25.90;16.30;;;;;;;8.40;73.04;99470.41;107228;1254;1016415;-71
2023/03/30 21:13:27;;;;;;;21.10;14.90;;;;;;;8.39;73.31;99470.25;107155;1255;1017159;-71
2023/03/30 21:18:20;;;;;;;20.00;14.20;;;;;;;8.39;73.49;99471.45;107243;1257;1016512;-72
2023/03/30 21:23:12;;;;;;;22.00;16.60;;;;;;;8.38;73.66;99467.48;107251;1257;1016278;-71
2023/03/30 21:28:05;;;;;;;23.40;16.60;;;;;;;8.37;74.02;99463.16;107281;1254;1018391;-72
2023/03/30 21:32:58;;;;;;;20.30;15.80;;;;;;;8.35;73.93;99459.69;107283;1254;1017320;-71
2023/03/30 21:37:52;;;;;;;23.20;16.60;;;;;;;8.33;74.27;99453.81;107107;1257;1016975;-71
2023/03/30 21:42:45;;;;;;;22.80;16.30;;;;;;;8.32;74.36;99445.52;107246;1254;1016231;-72
2023/03/30 21:47:39;;;;;;;24.60;17.40;;;;;;;8.30;74.57;99444.29;107308;1255;1019646;-71
2023/03/30 21:52:34;;;;;;;25.40;18.30;;;;;;;8.29;74.95;99437.73;107233;1258;1016195;-71
2023/03/30 21:57:28;;;;;;;26.50;18.20;;;;;;;8.28;75.13;99431.52;107272;1254;1065802;-71
2023/03/30 22:02:23;;;;;;;23.70;18.20;;;;;;;8.27;75.07;99420.98;107155;1259;1071171;-71
2023/03/30 22:07:16;;;;;;;25.80;18.80;;;;;;;8.27;75.30;99418.73;107047;1254;1016204;-71
2023/03/30 22:12:08;;;;;;;22.80;17.00;;;;;;;8.27;75.37;99409.40;107097;1254;1016349;-72
2023/03/30 22:17:01;;;;;;;23.80;18.90;;;;;;;8.26;75.58;99402.48;107130;1254;1016426;-72
2023/03/30 22:21:55;;;;;;;25.70;18.00;;;;;;;8.26;75.97;99403.87;107101;1257;1016428;-72
2023/03/30 22:26:48;;;;;;;24.00;18.80;;;;;;;8.28;76.12;99399.05;106989;1258;1016331;-71